Time;durP1;ratioP1;P1;durP2;ratioP2;P2;SDS_P1;SDS_P2;PMS_P1;PMS_P2;Temp;Humidity;BMP_temperature;BMP_pressure;BME280_temperature;BME280_humidity;BME280_pressure;Samples;Min_cycle;Max_cycle;Signal;HPM_P1;HPM_P2
2023/01/15 00:01:29;;;;;;;14.85;3.20;;;7.20;99.90;;;;;;5045387;28;20088;-57
2023/01/15 00:03:56;;;;;;;14.45;2.83;;;7.20;99.90;;;;;;5101323;28;20036;-57
2023/01/15 00:06:23;;;;;;;12.93;2.92;;;7.20;99.90;;;;;;5087838;28;20309;-58
2023/01/15 00:08:49;;;;;;;10.82;2.40;;;7.20;99.90;;;;;;5089067;28;20071;-56
2023/01/15 00:11:15;;;;;;;11.68;3.03;;;7.20;99.90;;;;;;5096702;28;20040;-57
2023/01/15 00:13:41;;;;;;;14.18;2.97;;;7.20;99.90;;;;;;5095660;28;20028;-57
2023/01/15 00:16:13;;;;;;;15.73;3.70;;;7.20;99.90;;;;;;5087775;28;20389;-57
2023/01/15 00:18:39;;;;;;;11.80;3.13;;;7.20;99.90;;;;;;5092158;28;20404;-56
2023/01/15 00:21:07;;;;;;;11.57;2.83;;;7.20;99.90;;;;;;5095149;28;20118;-59
2023/01/15 00:29:10;;;;;;;11.68;2.60;;;7.20;99.90;;;;;;5095824;28;20456;-56
2023/01/15 00:31:36;;;;;;;9.02;2.45;;;7.20;99.90;;;;;;5093625;28;20032;-57
2023/01/15 00:34:02;;;;;;;9.07;2.45;;;7.10;99.90;;;;;;5095222;28;20028;-56
2023/01/15 00:36:27;;;;;;;13.02;2.53;;;7.10;99.90;;;;;;5086655;28;20031;-56
2023/01/15 00:38:53;;;;;;;8.18;2.60;;;7.10;99.90;;;;;;5088554;28;20056;-54
2023/01/15 00:41:19;;;;;;;14.75;2.70;;;7.20;99.90;;;;;;5091954;28;20361;-59
2023/01/15 00:43:44;;;;;;;12.68;2.75;;;7.20;99.90;;;;;;5098703;28;20466;-54
2023/01/15 00:46:12;;;;;;;10.52;2.53;;;7.20;99.90;;;;;;5094705;28;20424;-56
2023/01/15 00:48:38;;;;;;;13.98;2.53;;;7.20;99.90;;;;;;5084175;28;20122;-57
2023/01/15 00:51:04;;;;;;;11.38;2.47;;;7.20;99.90;;;;;;5101220;28;20050;-52
2023/01/15 00:53:30;;;;;;;12.75;2.92;;;7.20;99.90;;;;;;5092130;28;20040;-56
2023/01/15 00:55:55;;;;;;;11.90;2.80;;;7.20;99.90;;;;;;5091723;28;20352;-57
2023/01/15 00:58:21;;;;;;;12.68;2.65;;;7.20;99.90;;;;;;5088983;28;20399;-61
2023/01/15 01:00:55;;;;;;;14.80;2.95;;;7.20;99.90;;;;;;5094141;28;20487;-56
2023/01/15 01:03:21;;;;;;;12.88;2.88;;;7.20;99.90;;;;;;5071124;28;20437;-54
2023/01/15 01:05:47;;;;;;;11.65;2.42;;;7.10;99.90;;;;;;5086112;28;20036;-56
2023/01/15 01:08:12;;;;;;;11.48;2.85;;;7.10;99.90;;;;;;5091215;28;20040;-56
2023/01/15 01:10:38;;;;;;;15.52;2.92;;;7.10;99.90;;;;;;5089938;28;20064;-58
2023/01/15 01:13:04;;;;;;;10.32;2.67;;;7.10;99.90;;;;;;5096251;28;20063;-55
2023/01/15 01:15:33;;;;;;;13.57;3.28;;;7.10;99.90;;;;;;5094264;28;20121;-54
2023/01/15 01:18:00;;;;;;;10.75;2.90;;;7.20;99.90;;;;;;5090992;28;20055;-56
2023/01/15 01:20:26;;;;;;;15.95;3.00;;;7.10;99.90;;;;;;5091351;28;20051;-54
2023/01/15 01:22:52;;;;;;;12.55;3.13;;;7.10;99.90;;;;;;5086071;28;20040;-59
2023/01/15 01:25:18;;;;;;;9.88;2.50;;;7.10;99.90;;;;;;5088913;28;20041;-56
2023/01/15 01:27:44;;;;;;;13.57;2.60;;;7.00;99.90;;;;;;5090830;28;20050;-58
2023/01/15 01:30:19;;;;;;;13.88;2.80;;;7.10;99.90;;;;;;5092606;28;20048;-58
2023/01/15 01:32:45;;;;;;;11.45;2.70;;;7.10;99.90;;;;;;5086334;28;20039;-55
2023/01/15 01:35:20;;;;;;;12.77;2.97;;;7.00;99.90;;;;;;5089822;28;20036;-57
2023/01/15 01:37:51;;;;;;;13.48;2.72;;;7.00;99.90;;;;;;5082979;28;20147;-55
2023/01/15 01:40:18;;;;;;;14.32;3.67;;;7.00;99.90;;;;;;5087541;28;20060;-61
2023/01/15 01:42:44;;;;;;;11.50;2.92;;;7.00;99.90;;;;;;5092081;28;20044;-56
2023/01/15 01:45:26;;;;;;;14.15;3.35;;;7.10;99.90;;;;;;5090514;28;20094;-56
2023/01/15 01:47:57;;;;;;;17.15;3.45;;;7.00;99.90;;;;;;5085375;28;20047;-60
2023/01/15 01:50:23;;;;;;;12.50;3.17;;;7.00;99.90;;;;;;5085357;28;20044;-55
2023/01/15 01:52:56;;;;;;;12.30;3.92;;;7.00;99.90;;;;;;5092941;28;20044;-56
2023/01/15 01:55:23;;;;;;;15.25;4.63;;;7.00;99.90;;;;;;5082612;28;20051;-60
2023/01/15 01:57:51;;;;;;;10.63;3.95;;;7.00;99.90;;;;;;5085462;28;20365;-57
2023/01/15 02:00:18;;;;;;;14.02;4.00;;;7.00;99.90;;;;;;5083047;28;20048;-53
2023/01/15 02:02:46;;;;;;;13.25;3.80;;;7.10;99.90;;;;;;5083967;28;20044;-56
2023/01/15 02:05:27;;;;;;;10.13;2.67;;;7.00;99.90;;;;;;5081465;28;20461;-54
2023/01/15 02:07:53;;;;;;;13.75;3.47;;;6.90;99.90;;;;;;5084078;28;20059;-55
2023/01/15 02:10:18;;;;;;;11.38;2.75;;;7.00;99.90;;;;;;5093863;28;20043;-58
2023/01/15 02:12:54;;;;;;;13.23;3.10;;;6.90;99.90;;;;;;5082713;28;20035;-56
2023/01/15 02:15:31;;;;;;;13.00;2.58;;;6.90;99.90;;;;;;5082193;28;20036;-56
2023/01/15 02:18:13;;;;;;;12.10;3.40;;;6.90;99.90;;;;;;5084713;28;20079;-55
2023/01/15 02:20:47;;;;;;;10.95;2.90;;;6.90;99.90;;;;;;5086898;28;20623;-55
2023/01/15 02:23:25;;;;;;;11.55;3.20;;;6.90;99.90;;;;;;5081965;28;20040;-52
2023/01/15 02:26:08;;;;;;;11.10;2.88;;;6.90;99.90;;;;;;5087209;28;20040;-55
2023/01/15 02:28:37;;;;;;;12.07;3.10;;;6.80;99.90;;;;;;5085287;28;20417;-55
2023/01/15 02:31:09;;;;;;;13.35;3.15;;;6.80;99.90;;;;;;5085437;28;20094;-55
2023/01/15 02:33:39;;;;;;;13.23;3.45;;;6.80;99.90;;;;;;5092806;28;20123;-55
2023/01/15 02:36:08;;;;;;;11.48;2.67;;;6.80;99.90;;;;;;5069139;28;20047;-57
2023/01/15 02:38:42;;;;;;;11.95;2.60;;;6.80;99.90;;;;;;5085786;28;20066;-56
2023/01/15 02:41:15;;;;;;;13.70;3.35;;;6.80;99.90;;;;;;5088319;28;20044;-54
2023/01/15 02:43:45;;;;;;;9.32;3.20;;;6.80;99.90;;;;;;5085854;28;20040;-54
2023/01/15 02:46:13;;;;;;;15.98;3.90;;;6.70;99.90;;;;;;5095657;28;20415;-54
2023/01/15 02:48:41;;;;;;;13.32;2.58;;;6.80;99.90;;;;;;5087763;28;20036;-53
2023/01/15 02:51:12;;;;;;;15.15;3.15;;;6.80;99.90;;;;;;5102144;28;20050;-57
2023/01/15 02:53:40;;;;;;;10.60;2.70;;;6.90;99.90;;;;;;5095390;28;20098;-57
2023/01/15 02:56:12;;;;;;;10.98;3.10;;;6.80;99.90;;;;;;5094985;28;20036;-54
2023/01/15 02:58:40;;;;;;;10.57;3.58;;;6.80;99.90;;;;;;5089718;28;20048;-59
2023/01/15 03:01:14;;;;;;;11.40;2.78;;;6.80;99.90;;;;;;5096221;28;20043;-55
2023/01/15 03:03:48;;;;;;;15.48;3.67;;;6.90;99.90;;;;;;5047549;28;20453;-54
2023/01/15 03:06:20;;;;;;;11.60;2.95;;;6.80;99.90;;;;;;5088377;28;20071;-56
2023/01/15 03:08:46;;;;;;;12.25;3.50;;;6.80;99.90;;;;;;5093796;28;20107;-53
2023/01/15 03:11:14;;;;;;;12.18;2.97;;;6.90;99.90;;;;;;5086975;28;20456;-56
2023/01/15 03:13:47;;;;;;;21.27;3.22;;;6.90;99.90;;;;;;5088962;28;20059;-54
2023/01/15 03:16:38;;;;;;;16.33;3.75;;;6.90;99.90;;;;;;5087820;28;20074;-56
2023/01/15 03:19:13;;;;;;;13.30;3.42;;;6.80;99.90;;;;;;5095408;28;20036;-54
2023/01/15 03:21:47;;;;;;;13.93;2.80;;;6.80;99.90;;;;;;5099571;28;20043;-55
2023/01/15 03:24:43;;;;;;;14.15;2.95;;;6.80;99.90;;;;;;5090817;28;20032;-58
2023/01/15 03:27:09;;;;;;;13.85;2.83;;;6.70;99.90;;;;;;5009843;28;20050;-55
2023/01/15 03:29:40;;;;;;;11.05;3.15;;;6.70;99.90;;;;;;5092048;28;20047;-55
2023/01/15 03:32:06;;;;;;;14.65;2.97;;;6.80;99.90;;;;;;5090836;28;20032;-54
2023/01/15 03:34:51;;;;;;;15.43;3.15;;;6.80;99.90;;;;;;5091225;28;20523;-60
2023/01/15 03:37:18;;;;;;;14.70;3.45;;;6.70;99.90;;;;;;5094814;28;20140;-58
2023/01/15 03:39:44;;;;;;;13.32;3.28;;;6.70;99.90;;;;;;5090424;28;20048;-57
2023/01/15 03:42:24;;;;;;;10.18;3.08;;;6.70;99.90;;;;;;5091791;28;20043;-57
2023/01/15 03:45:07;;;;;;;13.73;2.90;;;6.70;99.90;;;;;;5091400;28;20110;-57
2023/01/15 03:47:53;;;;;;;14.18;3.00;;;6.70;99.90;;;;;;5090664;28;20066;-56
2023/01/15 03:50:36;;;;;;;11.93;3.03;;;6.70;99.90;;;;;;5090068;28;20063;-56
2023/01/15 03:53:20;;;;;;;14.45;3.15;;;6.70;99.90;;;;;;5093376;28;20439;-52
2023/01/15 03:55:57;;;;;;;13.75;3.22;;;6.60;99.90;;;;;;5063546;28;20037;-57
2023/01/15 03:58:28;;;;;;;14.40;3.35;;;6.60;99.90;;;;;;5087873;28;20064;-56
2023/01/15 04:00:59;;;;;;;10.00;2.90;;;6.60;99.90;;;;;;5096202;28;20048;-57
2023/01/15 04:03:26;;;;;;;14.50;2.95;;;6.60;99.90;;;;;;5087209;28;20043;-57
2023/01/15 04:05:55;;;;;;;11.20;3.03;;;6.60;99.90;;;;;;5092216;28;20046;-58
2023/01/15 04:08:22;;;;;;;14.48;3.92;;;6.60;99.90;;;;;;5092773;28;20406;-57
2023/01/15 04:10:52;;;;;;;12.63;3.00;;;6.60;99.90;;;;;;5091203;28;20300;-53
2023/01/15 04:13:17;;;;;;;11.23;2.80;;;6.60;99.90;;;;;;5094830;28;20110;-54
2023/01/15 04:15:43;;;;;;;13.00;3.00;;;6.60;99.90;;;;;;5092846;28;20035;-55
2023/01/15 04:18:08;;;;;;;13.65;2.92;;;6.60;99.90;;;;;;5092247;28;20036;-56
2023/01/15 04:20:34;;;;;;;11.70;2.95;;;6.50;99.90;;;;;;5098092;28;20051;-56
2023/01/15 04:23:00;;;;;;;13.05;3.13;;;6.60;99.90;;;;;;5087012;28;20132;-56
2023/01/15 04:25:25;;;;;;;13.70;2.83;;;6.60;99.90;;;;;;5089021;28;20045;-57
2023/01/15 04:27:53;;;;;;;14.57;2.97;;;6.70;99.90;;;;;;5093575;28;20118;-58
2023/01/15 04:30:21;;;;;;;14.23;3.22;;;6.60;99.90;;;;;;5091741;28;20119;-56
2023/01/15 04:32:50;;;;;;;16.00;3.25;;;6.60;99.90;;;;;;5085548;28;20071;-57
2023/01/15 04:35:17;;;;;;;13.90;3.40;;;6.60;99.90;;;;;;5086622;28;20085;-56
2023/01/15 04:37:43;;;;;;;14.07;3.35;;;6.50;99.90;;;;;;5084344;28;20109;-54
2023/01/15 04:44:05;;;;;;;14.25;3.28;;;6.50;99.90;;;;;;5089276;28;20032;-52
2023/01/15 04:45:47;;;;;;;14.00;3.13;;;6.50;99.90;;;;;;5093743;28;19926;-57
2023/01/15 04:48:13;;;;;;;12.23;2.75;;;6.50;99.90;;;;;;5085292;28;20355;-57
2023/01/15 04:50:39;;;;;;;12.43;2.78;;;6.50;99.90;;;;;;5093566;28;20036;-54
2023/01/15 04:53:04;;;;;;;11.85;2.72;;;6.50;99.90;;;;;;5092565;28;20035;-53
2023/01/15 04:55:30;;;;;;;14.00;3.00;;;6.50;99.90;;;;;;5090232;28;20350;-56
2023/01/15 04:57:55;;;;;;;9.88;2.80;;;6.40;99.90;;;;;;5093569;28;20040;-57
2023/01/15 05:00:22;;;;;;;15.10;3.28;;;6.50;99.90;;;;;;5091672;28;20066;-58
2023/01/15 05:02:48;;;;;;;10.50;3.03;;;6.40;99.90;;;;;;5093249;28;20562;-57
2023/01/15 05:05:13;;;;;;;14.05;3.30;;;6.40;99.90;;;;;;5087883;28;20357;-56
2023/01/15 05:07:39;;;;;;;13.07;2.92;;;6.50;99.90;;;;;;5090183;28;20051;-54
2023/01/15 05:10:05;;;;;;;10.95;2.80;;;6.50;99.90;;;;;;5089986;28;20483;-53
2023/01/15 05:12:30;;;;;;;14.93;3.35;;;6.50;99.90;;;;;;5090443;28;20071;-56
2023/01/15 05:14:59;;;;;;;14.68;3.20;;;6.40;99.90;;;;;;5088648;28;20032;-57
2023/01/15 05:17:24;;;;;;;8.60;2.58;;;6.40;99.90;;;;;;5087084;28;20093;-56
2023/01/15 05:19:50;;;;;;;13.07;3.00;;;6.40;99.90;;;;;;5091879;28;20040;-53
2023/01/15 05:22:15;;;;;;;14.57;2.97;;;6.40;99.90;;;;;;5076293;28;20051;-54
2023/01/15 05:24:41;;;;;;;12.85;3.35;;;6.40;99.90;;;;;;5088426;28;20040;-56
2023/01/15 05:27:06;;;;;;;11.32;3.15;;;6.30;99.90;;;;;;5090391;28;20041;-59
2023/01/15 05:29:35;;;;;;;11.93;3.20;;;6.30;99.90;;;;;;5062626;28;20043;-57
2023/01/15 05:32:01;;;;;;;12.23;2.50;;;6.30;99.90;;;;;;5091014;28;20047;-58
2023/01/15 05:34:26;;;;;;;10.32;2.35;;;6.30;99.90;;;;;;5092340;28;20035;-57
2023/01/15 05:36:52;;;;;;;12.52;2.72;;;6.30;99.90;;;;;;5095678;28;20118;-58
2023/01/15 05:39:17;;;;;;;13.20;3.10;;;6.30;99.90;;;;;;5090940;28;20074;-59
2023/01/15 05:41:49;;;;;;;11.07;2.78;;;6.40;99.90;;;;;;5094132;28;20388;-57
2023/01/15 05:44:23;;;;;;;9.35;2.58;;;6.40;99.90;;;;;;5088529;28;20043;-57
2023/01/15 05:46:50;;;;;;;11.10;3.08;;;6.40;99.90;;;;;;5087796;28;20045;-57
2023/01/15 05:49:19;;;;;;;10.02;2.38;;;6.30;99.90;;;;;;5090584;28;20032;-54
2023/01/15 05:51:45;;;;;;;8.95;2.50;;;6.20;99.90;;;;;;5085347;28;20388;-56
2023/01/15 05:54:14;;;;;;;13.05;2.95;;;6.20;99.90;;;;;;5093221;28;20036;-53
2023/01/15 05:56:39;;;;;;;8.43;2.42;;;6.20;99.90;;;;;;5090452;28;20430;-54
2023/01/15 05:59:06;;;;;;;9.88;3.10;;;6.10;99.90;;;;;;5087995;28;20036;-56
2023/01/15 06:01:32;;;;;;;11.23;2.72;;;6.10;99.90;;;;;;5090077;28;20036;-56
2023/01/15 06:03:59;;;;;;;12.60;2.97;;;6.10;99.90;;;;;;5093704;28;20036;-57
2023/01/15 06:06:28;;;;;;;15.48;2.78;;;6.10;99.90;;;;;;5086299;28;20044;-58
2023/01/15 06:08:53;;;;;;;9.75;2.35;;;6.10;99.90;;;;;;5092017;28;20036;-57
2023/01/15 06:11:19;;;;;;;13.10;2.60;;;6.10;99.90;;;;;;5086105;28;20042;-60
2023/01/15 06:13:44;;;;;;;9.55;2.33;;;6.10;99.90;;;;;;5092322;28;20161;-56
2023/01/15 06:16:10;;;;;;;12.45;2.70;;;6.10;99.90;;;;;;5090736;28;20432;-61
2023/01/15 06:18:37;;;;;;;13.95;3.05;;;6.10;99.90;;;;;;5089173;28;20473;-56
2023/01/15 06:21:05;;;;;;;15.63;2.80;;;6.00;99.90;;;;;;5091196;28;20047;-56
2023/01/15 06:23:31;;;;;;;11.20;2.60;;;6.00;99.90;;;;;;5090672;28;20043;-57
2023/01/15 06:26:01;;;;;;;13.32;3.03;;;5.90;99.90;;;;;;5090031;28;20622;-53
2023/01/15 06:28:26;;;;;;;14.52;2.53;;;5.90;99.90;;;;;;5066100;28;20048;-59
2023/01/15 06:30:52;;;;;;;12.30;2.75;;;5.90;99.90;;;;;;5096324;28;20035;-54
2023/01/15 06:33:18;;;;;;;13.20;2.85;;;5.80;99.90;;;;;;5097856;28;20483;-57
2023/01/15 06:35:43;;;;;;;13.70;3.00;;;5.80;99.90;;;;;;5091031;28;20329;-57
2023/01/15 06:38:09;;;;;;;11.00;2.65;;;5.80;99.90;;;;;;5091077;28;20135;-58
2023/01/15 06:40:35;;;;;;;11.25;2.80;;;5.70;99.90;;;;;;5102209;28;20078;-56
2023/01/15 06:48:40;;;;;;;11.70;3.00;;;5.70;99.90;;;;;;5089165;28;20074;-57
2023/01/15 06:51:05;;;;;;;12.73;2.75;;;5.70;99.90;;;;;;5096076;28;20040;-55
2023/01/15 06:53:31;;;;;;;9.27;1.48;;;5.70;99.90;;;;;;5094735;28;20357;-52
2023/01/15 06:56:00;;;;;;;10.50;2.78;;;5.80;99.90;;;;;;5094157;28;20041;-54
2023/01/15 06:58:26;;;;;;;10.18;2.65;;;5.90;99.90;;;;;;5090348;28;20040;-56
2023/01/15 07:00:54;;;;;;;12.73;2.85;;;5.90;99.90;;;;;;5101342;28;20085;-61
2023/01/15 07:03:20;;;;;;;4.03;1.35;;;5.90;99.90;;;;;;5087626;28;20055;-54
2023/01/15 07:05:46;;;;;;;11.00;2.53;;;5.90;99.90;;;;;;5094981;28;20036;-55
2023/01/15 07:08:12;;;;;;;13.05;2.70;;;5.80;99.90;;;;;;5093521;28;20051;-56
2023/01/15 07:10:37;;;;;;;10.32;2.63;;;5.70;99.90;;;;;;5094988;28;20040;-57
2023/01/15 07:13:12;;;;;;;6.00;1.58;;;5.70;99.90;;;;;;5093612;28;20047;-59
2023/01/15 07:15:38;;;;;;;8.23;2.08;;;5.70;99.90;;;;;;5096942;28;20357;-59
2023/01/15 07:18:04;;;;;;;10.73;2.30;;;5.90;99.90;;;;;;5094033;28;20050;-60
2023/01/15 07:20:29;;;;;;;9.52;2.20;;;6.00;99.90;;;;;;5088662;28;20084;-55
2023/01/15 07:22:55;;;;;;;9.65;2.55;;;5.90;99.90;;;;;;5091465;28;20150;-58
2023/01/15 07:25:21;;;;;;;10.90;2.53;;;5.70;99.90;;;;;;5091004;28;20105;-60
2023/01/15 07:27:47;;;;;;;10.32;2.20;;;5.60;99.90;;;;;;5096112;28;20082;-61
2023/01/15 07:30:13;;;;;;;8.20;2.08;;;5.60;99.90;;;;;;5092850;28;20472;-54
2023/01/15 07:32:38;;;;;;;9.93;2.17;;;5.50;99.90;;;;;;5071728;28;20036;-56
2023/01/15 07:35:04;;;;;;;10.20;1.63;;;5.50;99.90;;;;;;5098821;28;20024;-56
2023/01/15 07:37:30;;;;;;;9.77;2.08;;;5.50;99.90;;;;;;5087079;28;20070;-56
2023/01/15 07:39:56;;;;;;;8.73;2.60;;;5.60;99.90;;;;;;5099166;28;20440;-57
2023/01/15 07:50:38;;;;;;;10.68;2.85;;;5.60;99.90;;;;;;5093317;28;20087;-57
2023/01/15 07:53:03;;;;;;;9.85;2.17;;;5.60;99.90;;;;;;5092886;28;20441;-56
2023/01/15 07:55:29;;;;;;;11.20;2.35;;;5.50;99.90;;;;;;5092565;28;20097;-60
2023/01/15 07:57:55;;;;;;;8.40;2.50;;;5.40;99.90;;;;;;5092737;28;20067;-55
2023/01/15 08:00:23;;;;;;;10.10;2.38;;;5.40;99.90;;;;;;5094894;28;20165;-57
2023/01/15 08:02:49;;;;;;;8.73;2.40;;;5.50;99.90;;;;;;5095414;28;20050;-57
2023/01/15 08:05:15;;;;;;;8.05;2.20;;;5.50;99.90;;;;;;5075074;28;20109;-59
2023/01/15 08:07:42;;;;;;;9.40;2.58;;;5.50;99.90;;;;;;5093704;28;20044;-54
2023/01/15 08:10:09;;;;;;;7.05;2.25;;;5.40;99.90;;;;;;5090543;28;20036;-53
2023/01/15 08:15:19;;;;;;;8.82;2.58;;;5.50;99.90;;;;;;5092207;28;20078;-53
2023/01/15 08:17:47;;;;;;;10.02;2.47;;;5.50;99.90;;;;;;5094474;28;20069;-57
2023/01/15 08:20:18;;;;;;;13.75;3.30;;;5.50;99.90;;;;;;5093196;28;20432;-52
2023/01/15 08:22:44;;;;;;;9.15;1.63;;;5.50;99.90;;;;;;5092505;28;20063;-53
2023/01/15 08:25:12;;;;;;;11.02;2.72;;;5.40;99.90;;;;;;5092796;28;20055;-58
2023/01/15 08:27:39;;;;;;;11.73;2.53;;;5.50;99.90;;;;;;5091531;28;20116;-55
2023/01/15 08:30:18;;;;;;;15.48;3.13;;;5.50;99.90;;;;;;5095962;28;20038;-55
2023/01/15 08:32:44;;;;;;;10.40;1.75;;;5.60;99.90;;;;;;5088511;28;20478;-54
2023/01/15 08:35:11;;;;;;;10.00;2.50;;;5.60;99.90;;;;;;5101961;28;20031;-56
2023/01/15 08:37:38;;;;;;;11.20;2.58;;;5.70;99.90;;;;;;5093735;28;20493;-61
2023/01/15 08:40:04;;;;;;;11.68;3.15;;;5.80;99.90;;;;;;5097349;28;20063;-53
2023/01/15 08:42:30;;;;;;;7.40;1.58;;;5.80;99.90;;;;;;5099582;28;20120;-56
2023/01/15 08:44:56;;;;;;;11.73;2.95;;;5.80;99.90;;;;;;5091718;28;20551;-53
2023/01/15 08:47:21;;;;;;;6.57;2.13;;;5.80;99.90;;;;;;5092707;28;20519;-60
2023/01/15 08:49:47;;;;;;;8.57;2.22;;;5.80;99.90;;;;;;5092207;28;20093;-56
2023/01/15 08:52:13;;;;;;;9.18;2.10;;;5.70;99.90;;;;;;5085047;28;20101;-57
2023/01/15 08:54:39;;;;;;;12.77;2.90;;;5.60;99.90;;;;;;5089265;28;20456;-55
2023/01/15 08:57:05;;;;;;;12.13;2.80;;;5.30;99.90;;;;;;5089616;28;20039;-56
2023/01/15 08:59:30;;;;;;;13.90;2.45;;;5.20;99.90;;;;;;5089905;28;20059;-63
2023/01/15 09:01:56;;;;;;;8.63;1.63;;;5.00;99.90;;;;;;5073428;28;20056;-56
2023/01/15 09:04:22;;;;;;;8.77;2.42;;;5.00;99.90;;;;;;5093968;28;20032;-57
2023/01/15 09:06:48;;;;;;;13.05;2.58;;;5.00;99.90;;;;;;5092070;28;20032;-56
2023/01/15 09:09:14;;;;;;;13.93;2.72;;;4.80;99.90;;;;;;5087238;28;20083;-56
2023/01/15 09:11:40;;;;;;;3.88;1.17;;;4.70;99.90;;;;;;5093262;28;20372;-52
2023/01/15 09:14:07;;;;;;;8.90;2.30;;;4.60;99.90;;;;;;5093468;28;20035;-56
2023/01/15 09:16:34;;;;;;;11.13;2.83;;;4.50;99.90;;;;;;5094412;28;20024;-58
2023/01/15 09:18:59;;;;;;;7.70;1.58;;;4.50;99.90;;;;;;5094732;28;20117;-55
2023/01/15 09:21:25;;;;;;;6.75;1.73;;;4.50;99.90;;;;;;5090657;28;20192;-53
2023/01/15 09:23:50;;;;;;;5.68;1.38;;;4.30;99.90;;;;;;5088258;28;20394;-55
2023/01/15 09:26:38;;;;;;;16.08;3.17;;;4.40;99.90;;;;;;5095788;28;20031;-52
2023/01/15 09:29:05;;;;;;;13.60;2.97;;;4.50;99.90;;;;;;5089729;28;20040;-56
2023/01/15 09:31:31;;;;;;;12.35;3.03;;;4.60;99.90;;;;;;5086878;28;20028;-55
2023/01/15 09:33:57;;;;;;;4.97;1.25;;;4.70;99.90;;;;;;5095320;28;20038;-56
2023/01/15 09:36:27;;;;;;;14.50;3.22;;;4.60;99.90;;;;;;5088427;28;20134;-55
2023/01/15 09:38:53;;;;;;;11.60;1.88;;;4.80;99.90;;;;;;5082180;28;20547;-55
2023/01/15 09:44:20;;;;;;;6.35;1.42;;;5.00;99.90;;;;;;5085641;28;20477;-58
2023/01/15 09:46:57;;;;;;;8.60;2.83;;;5.10;99.90;;;;;;5084671;28;20118;-56
2023/01/15 09:49:54;;;;;;;8.07;1.83;;;5.10;99.90;;;;;;5090135;28;20031;-53
2023/01/15 09:52:35;;;;;;;12.85;2.80;;;5.10;99.90;;;;;;5079013;28;20429;-55
2023/01/15 09:55:25;;;;;;;9.88;2.75;;;5.20;99.90;;;;;;5086051;28;20042;-55
2023/01/15 09:57:54;;;;;;;10.43;2.70;;;5.30;99.90;;;;;;5089286;28;20036;-60
2023/01/15 10:00:23;;;;;;;11.63;1.85;;;5.30;99.90;;;;;;5083827;28;20048;-56
2023/01/15 10:02:54;;;;;;;10.95;3.03;;;5.40;99.90;;;;;;5091735;28;20039;-53
2023/01/15 10:05:32;;;;;;;13.38;3.03;;;5.40;99.90;;;;;;5099151;28;20050;-56
2023/01/15 10:08:10;;;;;;;11.50;2.33;;;5.50;99.90;;;;;;5088076;28;20044;-54
2023/01/15 10:10:46;;;;;;;11.10;2.70;;;5.60;99.90;;;;;;5088411;28;20059;-56
2023/01/15 10:13:25;;;;;;;11.65;2.58;;;5.50;99.90;;;;;;5087652;28;20121;-56
2023/01/15 10:15:51;;;;;;;10.73;2.63;;;5.60;99.90;;;;;;5082881;28;20499;-58
2023/01/15 10:18:21;;;;;;;11.48;2.92;;;5.70;99.90;;;;;;5091434;28;20043;-53
2023/01/15 10:21:11;;;;;;;5.85;1.63;;;5.70;99.90;;;;;;5087452;28;20027;-53
2023/01/15 10:23:47;;;;;;;12.90;2.92;;;5.80;99.90;;;;;;5087974;28;20365;-55
2023/01/15 10:26:37;;;;;;;13.20;2.83;;;5.80;99.90;;;;;;5087360;28;20036;-56
2023/01/15 10:29:22;;;;;;;12.05;2.97;;;5.80;99.90;;;;;;5081595;28;20186;-54
2023/01/15 10:31:50;;;;;;;12.07;3.35;;;5.80;99.90;;;;;;5088322;28;20036;-56
2023/01/15 10:34:43;;;;;;;13.32;3.53;;;5.80;99.90;;;;;;5089892;28;20052;-55
2023/01/15 10:37:19;;;;;;;13.60;2.83;;;5.70;99.90;;;;;;5091032;28;20043;-52
2023/01/15 10:40:20;;;;;;;14.60;3.67;;;5.80;99.90;;;;;;5090077;28;20075;-54
2023/01/15 10:43:05;;;;;;;13.18;2.72;;;5.80;99.90;;;;;;5094025;28;20048;-54
2023/01/15 10:45:43;;;;;;;11.93;2.60;;;5.90;99.90;;;;;;5068261;28;20041;-57
2023/01/15 10:48:18;;;;;;;11.70;2.65;;;6.00;99.90;;;;;;5085866;28;20123;-54
2023/01/15 10:50:44;;;;;;;13.85;2.78;;;6.00;99.90;;;;;;5087056;28;20054;-59
2023/01/15 10:53:37;;;;;;;8.18;1.40;;;6.00;99.90;;;;;;5071564;28;20036;-53
2023/01/15 10:56:36;;;;;;;13.00;3.05;;;6.10;99.90;;;;;;5095284;28;21304;-56
2023/01/15 10:59:29;;;;;;;10.40;2.67;;;6.00;99.90;;;;;;5091500;28;20031;-56
2023/01/15 11:01:58;;;;;;;11.10;2.40;;;6.20;99.90;;;;;;5095352;28;20040;-54
2023/01/15 11:04:30;;;;;;;13.05;2.03;;;6.30;99.90;;;;;;5090263;28;20040;-56
2023/01/15 11:06:56;;;;;;;14.25;2.83;;;6.20;99.90;;;;;;5095759;28;20191;-57
2023/01/15 11:09:29;;;;;;;12.75;3.13;;;6.20;99.90;;;;;;5096798;28;20511;-59
2023/01/15 11:20:34;;;;;;;12.63;2.92;;;6.40;99.90;;;;;;5095636;28;20040;-56
2023/01/15 11:23:26;;;;;;;9.13;1.98;;;6.50;99.90;;;;;;5095416;28;20040;-56
2023/01/15 11:25:54;;;;;;;13.88;4.18;;;6.40;99.90;;;;;;5075158;28;20052;-61
2023/01/15 11:28:35;;;;;;;11.55;3.15;;;6.50;99.90;;;;;;5096862;28;20067;-56
2023/01/15 11:31:02;;;;;;;15.02;3.70;;;6.60;99.90;;;;;;5094038;28;20111;-53
2023/01/15 11:33:28;;;;;;;13.77;3.00;;;6.70;99.90;;;;;;5091132;28;20452;-57
2023/01/15 11:35:59;;;;;;;12.40;3.10;;;6.70;99.90;;;;;;5088983;28;20037;-57
2023/01/15 11:38:30;;;;;;;12.00;3.20;;;6.70;99.90;;;;;;5090160;28;20483;-57
2023/01/15 11:40:59;;;;;;;13.27;2.58;;;6.70;99.90;;;;;;5094781;28;20410;-55
2023/01/15 11:52:03;;;;;;;12.77;2.70;;;6.80;99.90;;;;;;5096728;28;20044;-57
2023/01/15 11:54:31;;;;;;;12.93;2.75;;;6.80;99.90;;;;;;5106015;28;20040;-59
2023/01/15 11:56:57;;;;;;;12.32;3.17;;;6.80;99.90;;;;;;5101275;28;20038;-55
2023/01/15 11:59:24;;;;;;;10.15;2.85;;;6.90;99.90;;;;;;5092989;28;20063;-55
2023/01/15 12:01:58;;;;;;;11.75;2.90;;;6.90;99.90;;;;;;5094068;28;20036;-58
2023/01/15 12:04:43;;;;;;;13.40;2.45;;;7.00;99.90;;;;;;5069035;28;20098;-56
2023/01/15 12:07:12;;;;;;;13.68;2.88;;;7.10;99.90;;;;;;5087395;28;20040;-53
2023/01/15 12:10:10;;;;;;;15.57;3.47;;;7.10;99.90;;;;;;5088692;28;20054;-55
2023/01/15 12:12:49;;;;;;;15.95;2.75;;;7.10;99.90;;;;;;5093623;28;20028;-57
2023/01/15 12:15:21;;;;;;;10.38;2.80;;;7.10;99.90;;;;;;5092973;28;20379;-56
2023/01/15 12:18:01;;;;;;;13.38;2.88;;;7.10;99.90;;;;;;5074174;28;20135;-56
2023/01/15 12:20:46;;;;;;;11.27;2.75;;;6.90;99.90;;;;;;5086110;28;20181;-57
2023/01/15 12:23:26;;;;;;;11.88;3.58;;;7.00;99.90;;;;;;5093821;28;20055;-56
2023/01/15 12:26:24;;;;;;;10.25;2.83;;;7.00;99.90;;;;;;5092470;28;20047;-61
2023/01/15 12:29:10;;;;;;;9.95;2.75;;;7.00;99.90;;;;;;5092103;28;20264;-54
2023/01/15 12:32:01;;;;;;;14.70;2.95;;;7.00;99.90;;;;;;5077565;28;20036;-61
2023/01/15 12:34:54;;;;;;;15.15;2.95;;;7.00;99.90;;;;;;5092577;28;20031;-58
2023/01/15 12:37:25;;;;;;;11.73;3.08;;;6.80;99.90;;;;;;5095465;28;20043;-58
2023/01/15 12:39:57;;;;;;;12.30;2.75;;;6.80;99.90;;;;;;5092261;28;20492;-60
2023/01/15 12:45:16;;;;;;;8.77;2.35;;;6.90;99.90;;;;;;5086008;28;20040;-55
2023/01/15 12:48:01;;;;;;;10.88;2.10;;;6.90;99.90;;;;;;5090337;28;20074;-58
2023/01/15 12:50:46;;;;;;;11.90;2.63;;;6.60;99.90;;;;;;5086903;28;20123;-58
2023/01/15 12:53:36;;;;;;;12.60;2.95;;;6.40;99.90;;;;;;5090527;28;20040;-58
2023/01/15 12:56:25;;;;;;;9.40;2.15;;;6.30;99.90;;;;;;5091448;28;20039;-56
2023/01/15 12:59:05;;;;;;;10.07;1.85;;;6.20;99.90;;;;;;5093654;28;20090;-58
2023/01/15 13:01:44;;;;;;;18.67;4.47;;;6.20;99.90;;;;;;5092449;28;20047;-54
2023/01/15 13:04:21;;;;;;;13.93;3.53;;;6.10;99.90;;;;;;5091234;28;20048;-55
2023/01/15 13:06:52;;;;;;;15.27;3.50;;;6.30;99.90;;;;;;5088926;28;20117;-56
2023/01/15 13:09:45;;;;;;;10.13;1.75;;;6.30;99.90;;;;;;5071854;28;20040;-58
2023/01/15 13:12:14;;;;;;;15.13;2.78;;;6.40;99.90;;;;;;5092746;28;20051;-54
2023/01/15 13:14:41;;;;;;;19.70;3.70;;;6.50;99.90;;;;;;5085111;28;20114;-55
2023/01/15 13:17:22;;;;;;;13.48;3.28;;;6.50;99.90;;;;;;5092751;28;20368;-58
2023/01/15 13:20:19;;;;;;;13.40;2.83;;;6.70;99.90;;;;;;5069127;28;20048;-57
2023/01/15 13:22:55;;;;;;;9.45;2.42;;;6.80;99.90;;;;;;5086149;28;20036;-59
2023/01/15 13:25:29;;;;;;;14.52;3.42;;;7.10;99.90;;;;;;5093154;28;20047;-60
2023/01/15 13:28:16;;;;;;;13.63;2.83;;;7.20;99.90;;;;;;5095793;28;20361;-59
2023/01/15 13:30:52;;;;;;;14.35;3.40;;;7.30;99.90;;;;;;5092772;28;20036;-55
2023/01/15 13:33:35;;;;;;;12.52;2.80;;;7.30;99.90;;;;;;5089423;28;20028;-61
2023/01/15 13:36:09;;;;;;;13.02;2.80;;;7.20;99.90;;;;;;5089196;28;20036;-58
2023/01/15 13:38:40;;;;;;;13.73;2.78;;;7.10;99.90;;;;;;5086018;28;20052;-56
2023/01/15 13:41:07;;;;;;;19.08;3.33;;;7.10;99.90;;;;;;5087600;28;20384;-61
2023/01/15 13:43:34;;;;;;;11.13;2.83;;;7.10;99.90;;;;;;5099858;28;20039;-54
2023/01/15 13:46:04;;;;;;;13.38;3.35;;;7.10;99.90;;;;;;5086409;28;20044;-57
2023/01/15 13:48:34;;;;;;;12.50;2.92;;;7.10;99.90;;;;;;5091043;28;20066;-57
2023/01/15 13:51:03;;;;;;;11.05;2.78;;;7.10;99.90;;;;;;5094316;28;20036;-57
2023/01/15 13:53:38;;;;;;;9.98;2.78;;;7.10;99.90;;;;;;5093155;28;20032;-57
2023/01/15 13:56:09;;;;;;;13.18;2.75;;;7.00;99.90;;;;;;5089033;28;20442;-57